sensor_id;sensor_type;location;lat;lon;timestamp;P1;durP1;ratioP1;P2;durP2;ratioP2
50064;SDS011;64524;47.848;-122.338;2022-12-18T00:01:19;2.10;;;0.70;;
50064;SDS011;64524;47.848;-122.338;2022-12-18T00:03:50;3.00;;;0.60;;
50064;SDS011;64524;47.848;-122.338;2022-12-18T00:06:22;1.80;;;0.70;;
50064;SDS011;64524;47.848;-122.338;2022-12-18T00:09:02;1.80;;;0.60;;
50064;SDS011;64524;47.848;-122.338;2022-12-18T00:11:31;3.20;;;0.70;;
50064;SDS011;64524;47.848;-122.338;2022-12-18T00:14:00;1.90;;;0.80;;
50064;SDS011;64524;47.848;-122.338;2022-12-18T00:16:29;1.40;;;0.70;;
50064;SDS011;64524;47.848;-122.338;2022-12-18T00:19:00;1.50;;;0.70;;
50064;SDS011;64524;47.848;-122.338;2022-12-18T00:21:29;2.10;;;0.60;;
50064;SDS011;64524;47.848;-122.338;2022-12-18T00:24:02;3.10;;;0.70;;
50064;SDS011;64524;47.848;-122.338;2022-12-18T00:26:31;2.20;;;0.70;;
50064;SDS011;64524;47.848;-122.338;2022-12-18T00:29:04;2.40;;;0.70;;
50064;SDS011;64524;47.848;-122.338;2022-12-18T00:31:34;3.50;;;0.70;;
50064;SDS011;64524;47.848;-122.338;2022-12-18T00:34:03;1.50;;;0.70;;
50064;SDS011;64524;47.848;-122.338;2022-12-18T00:36:37;1.60;;;0.80;;
50064;SDS011;64524;47.848;-122.338;2022-12-18T00:39:06;2.70;;;1.00;;
50064;SDS011;64524;47.848;-122.338;2022-12-18T00:41:35;2.20;;;0.70;;
50064;SDS011;64524;47.848;-122.338;2022-12-18T00:44:25;1.90;;;0.80;;
50064;SDS011;64524;47.848;-122.338;2022-12-18T00:46:57;5.80;;;1.50;;
50064;SDS011;64524;47.848;-122.338;2022-12-18T00:49:28;1.40;;;0.70;;
50064;SDS011;64524;47.848;-122.338;2022-12-18T00:52:00;10.70;;;0.90;;
50064;SDS011;64524;47.848;-122.338;2022-12-18T00:54:29;3.30;;;0.80;;
50064;SDS011;64524;47.848;-122.338;2022-12-18T00:56:58;1.70;;;0.70;;
50064;SDS011;64524;47.848;-122.338;2022-12-18T00:59:26;1.30;;;0.60;;
50064;SDS011;64524;47.848;-122.338;2022-12-18T01:01:56;4.30;;;1.00;;
50064;SDS011;64524;47.848;-122.338;2022-12-18T01:04:25;3.30;;;1.30;;
50064;SDS011;64524;47.848;-122.338;2022-12-18T01:06:53;2.80;;;0.70;;
50064;SDS011;64524;47.848;-122.338;2022-12-18T01:09:25;1.20;;;0.50;;
50064;SDS011;64524;47.848;-122.338;2022-12-18T01:11:56;1.30;;;0.60;;
50064;SDS011;64524;47.848;-122.338;2022-12-18T01:14:25;2.40;;;0.70;;
50064;SDS011;64524;47.848;-122.338;2022-12-18T01:16:54;1.40;;;0.60;;
50064;SDS011;64524;47.848;-122.338;2022-12-18T01:19:22;1.60;;;0.80;;
50064;SDS011;64524;47.848;-122.338;2022-12-18T01:21:51;1.80;;;0.80;;
50064;SDS011;64524;47.848;-122.338;2022-12-18T01:24:22;1.60;;;0.90;;
50064;SDS011;64524;47.848;-122.338;2022-12-18T01:26:51;2.50;;;0.80;;
50064;SDS011;64524;47.848;-122.338;2022-12-18T01:29:19;2.50;;;0.90;;
50064;SDS011;64524;47.848;-122.338;2022-12-18T01:31:48;3.40;;;0.80;;
50064;SDS011;64524;47.848;-122.338;2022-12-18T01:34:17;2.90;;;0.70;;
50064;SDS011;64524;47.848;-122.338;2022-12-18T01:36:49;2.70;;;0.60;;
50064;SDS011;64524;47.848;-122.338;2022-12-18T01:39:19;1.20;;;0.60;;
50064;SDS011;64524;47.848;-122.338;2022-12-18T01:41:48;3.90;;;0.60;;
50064;SDS011;64524;47.848;-122.338;2022-12-18T01:50:34;1.50;;;0.70;;
50064;SDS011;64524;47.848;-122.338;2022-12-18T01:53:15;2.90;;;0.90;;
50064;SDS011;64524;47.848;-122.338;2022-12-18T01:55:51;2.70;;;0.90;;
50064;SDS011;64524;47.848;-122.338;2022-12-18T01:58:23;1.30;;;0.60;;
50064;SDS011;64524;47.848;-122.338;2022-12-18T02:01:08;1.40;;;0.60;;
50064;SDS011;64524;47.848;-122.338;2022-12-18T02:03:37;2.10;;;0.70;;
50064;SDS011;64524;47.848;-122.338;2022-12-18T02:06:20;2.60;;;0.90;;
50064;SDS011;64524;47.848;-122.338;2022-12-18T02:11:49;1.30;;;0.60;;
50064;SDS011;64524;47.848;-122.338;2022-12-18T02:14:42;1.50;;;0.70;;
50064;SDS011;64524;47.848;-122.338;2022-12-18T02:17:21;1.70;;;0.70;;
50064;SDS011;64524;47.848;-122.338;2022-12-18T02:25:23;1.50;;;0.70;;
50064;SDS011;64524;47.848;-122.338;2022-12-18T02:28:12;3.40;;;0.90;;
50064;SDS011;64524;47.848;-122.338;2022-12-18T02:30:44;2.20;;;0.70;;
50064;SDS011;64524;47.848;-122.338;2022-12-18T02:33:23;5.40;;;0.90;;
50064;SDS011;64524;47.848;-122.338;2022-12-18T02:35:53;2.80;;;1.10;;
50064;SDS011;64524;47.848;-122.338;2022-12-18T02:38:24;1.90;;;0.70;;
50064;SDS011;64524;47.848;-122.338;2022-12-18T02:40:53;4.70;;;0.90;;
50064;SDS011;64524;47.848;-122.338;2022-12-18T02:43:23;2.50;;;0.90;;
50064;SDS011;64524;47.848;-122.338;2022-12-18T02:45:53;4.20;;;1.40;;
50064;SDS011;64524;47.848;-122.338;2022-12-18T02:48:26;2.60;;;1.20;;
50064;SDS011;64524;47.848;-122.338;2022-12-18T02:54:01;2.90;;;2.00;;
50064;SDS011;64524;47.848;-122.338;2022-12-18T02:56:42;8.20;;;3.40;;
50064;SDS011;64524;47.848;-122.338;2022-12-18T02:59:21;4.00;;;1.40;;
50064;SDS011;64524;47.848;-122.338;2022-12-18T03:02:11;3.80;;;1.50;;
50064;SDS011;64524;47.848;-122.338;2022-12-18T03:05:02;4.20;;;1.30;;
50064;SDS011;64524;47.848;-122.338;2022-12-18T03:10:11;2.80;;;1.00;;
50064;SDS011;64524;47.848;-122.338;2022-12-18T03:12:44;3.20;;;0.90;;
50064;SDS011;64524;47.848;-122.338;2022-12-18T03:15:36;5.00;;;1.60;;
50064;SDS011;64524;47.848;-122.338;2022-12-18T03:18:21;3.10;;;1.30;;
50064;SDS011;64524;47.848;-122.338;2022-12-18T03:20:55;9.60;;;1.90;;
50064;SDS011;64524;47.848;-122.338;2022-12-18T03:23:29;5.40;;;2.50;;
50064;SDS011;64524;47.848;-122.338;2022-12-18T03:26:03;5.30;;;2.70;;
50064;SDS011;64524;47.848;-122.338;2022-12-18T03:28:38;5.60;;;2.10;;
50064;SDS011;64524;47.848;-122.338;2022-12-18T03:31:11;4.70;;;1.80;;
50064;SDS011;64524;47.848;-122.338;2022-12-18T03:33:46;4.60;;;2.10;;
50064;SDS011;64524;47.848;-122.338;2022-12-18T03:36:19;8.00;;;2.70;;
50064;SDS011;64524;47.848;-122.338;2022-12-18T03:38:47;9.90;;;2.70;;
50064;SDS011;64524;47.848;-122.338;2022-12-18T03:41:24;9.70;;;3.20;;
50064;SDS011;64524;47.848;-122.338;2022-12-18T03:44:08;7.20;;;3.50;;
50064;SDS011;64524;47.848;-122.338;2022-12-18T03:46:48;5.10;;;2.30;;
50064;SDS011;64524;47.848;-122.338;2022-12-18T03:52:11;6.50;;;2.50;;
50064;SDS011;64524;47.848;-122.338;2022-12-18T03:54:48;7.10;;;2.40;;
50064;SDS011;64524;47.848;-122.338;2022-12-18T03:57:22;4.60;;;2.40;;
50064;SDS011;64524;47.848;-122.338;2022-12-18T04:00:11;7.90;;;3.10;;
50064;SDS011;64524;47.848;-122.338;2022-12-18T04:02:51;5.70;;;2.20;;
50064;SDS011;64524;47.848;-122.338;2022-12-18T04:05:42;4.20;;;2.80;;
50064;SDS011;64524;47.848;-122.338;2022-12-18T04:08:13;5.90;;;3.00;;
50064;SDS011;64524;47.848;-122.338;2022-12-18T04:10:43;5.50;;;2.00;;
50064;SDS011;64524;47.848;-122.338;2022-12-18T04:13:12;8.40;;;3.30;;
50064;SDS011;64524;47.848;-122.338;2022-12-18T04:15:43;13.30;;;3.40;;
50064;SDS011;64524;47.848;-122.338;2022-12-18T04:18:14;4.20;;;2.80;;
50064;SDS011;64524;47.848;-122.338;2022-12-18T04:20:45;6.30;;;3.00;;
50064;SDS011;64524;47.848;-122.338;2022-12-18T04:23:17;4.50;;;2.30;;
50064;SDS011;64524;47.848;-122.338;2022-12-18T04:25:46;13.70;;;2.90;;
50064;SDS011;64524;47.848;-122.338;2022-12-18T04:28:17;6.50;;;2.70;;
50064;SDS011;64524;47.848;-122.338;2022-12-18T04:30:46;5.70;;;2.50;;
50064;SDS011;64524;47.848;-122.338;2022-12-18T04:33:16;9.10;;;3.30;;
50064;SDS011;64524;47.848;-122.338;2022-12-18T04:35:45;11.50;;;4.00;;
50064;SDS011;64524;47.848;-122.338;2022-12-18T04:38:14;7.80;;;2.20;;
50064;SDS011;64524;47.848;-122.338;2022-12-18T04:40:42;5.80;;;3.40;;
50064;SDS011;64524;47.848;-122.338;2022-12-18T04:43:11;7.30;;;3.40;;
50064;SDS011;64524;47.848;-122.338;2022-12-18T04:45:40;9.50;;;3.20;;
50064;SDS011;64524;47.848;-122.338;2022-12-18T04:48:11;5.40;;;2.80;;
50064;SDS011;64524;47.848;-122.338;2022-12-18T04:50:46;4.80;;;3.20;;
50064;SDS011;64524;47.848;-122.338;2022-12-18T04:53:15;6.40;;;3.20;;
50064;SDS011;64524;47.848;-122.338;2022-12-18T04:55:43;9.70;;;4.80;;
50064;SDS011;64524;47.848;-122.338;2022-12-18T04:58:15;9.20;;;4.00;;
50064;SDS011;64524;47.848;-122.338;2022-12-18T05:00:44;10.70;;;5.30;;
50064;SDS011;64524;47.848;-122.338;2022-12-18T05:03:26;12.20;;;5.50;;
50064;SDS011;64524;47.848;-122.338;2022-12-18T05:05:55;14.60;;;6.90;;
50064;SDS011;64524;47.848;-122.338;2022-12-18T05:08:24;14.20;;;5.70;;
50064;SDS011;64524;47.848;-122.338;2022-12-18T05:11:00;11.00;;;4.80;;
50064;SDS011;64524;47.848;-122.338;2022-12-18T05:13:39;5.90;;;4.40;;
50064;SDS011;64524;47.848;-122.338;2022-12-18T05:16:08;8.10;;;4.30;;
50064;SDS011;64524;47.848;-122.338;2022-12-18T05:18:41;10.70;;;3.60;;
50064;SDS011;64524;47.848;-122.338;2022-12-18T05:21:14;9.50;;;3.70;;
50064;SDS011;64524;47.848;-122.338;2022-12-18T05:23:45;9.00;;;4.30;;
50064;SDS011;64524;47.848;-122.338;2022-12-18T05:26:15;10.20;;;5.00;;
50064;SDS011;64524;47.848;-122.338;2022-12-18T05:28:45;9.90;;;5.30;;
50064;SDS011;64524;47.848;-122.338;2022-12-18T05:31:20;14.50;;;6.90;;
50064;SDS011;64524;47.848;-122.338;2022-12-18T05:33:48;14.30;;;7.10;;
50064;SDS011;64524;47.848;-122.338;2022-12-18T05:36:17;7.40;;;5.40;;
50064;SDS011;64524;47.848;-122.338;2022-12-18T05:38:48;15.30;;;6.50;;
50064;SDS011;64524;47.848;-122.338;2022-12-18T05:41:17;10.10;;;5.60;;
50064;SDS011;64524;47.848;-122.338;2022-12-18T05:43:48;18.00;;;5.80;;
50064;SDS011;64524;47.848;-122.338;2022-12-18T05:46:17;8.30;;;5.10;;
50064;SDS011;64524;47.848;-122.338;2022-12-18T05:48:46;17.00;;;7.20;;
50064;SDS011;64524;47.848;-122.338;2022-12-18T05:51:19;10.00;;;6.80;;
50064;SDS011;64524;47.848;-122.338;2022-12-18T05:53:52;18.80;;;6.90;;
50064;SDS011;64524;47.848;-122.338;2022-12-18T05:56:21;12.40;;;8.80;;
50064;SDS011;64524;47.848;-122.338;2022-12-18T05:58:51;23.50;;;10.10;;
50064;SDS011;64524;47.848;-122.338;2022-12-18T06:01:22;25.80;;;11.00;;
50064;SDS011;64524;47.848;-122.338;2022-12-18T06:03:53;19.50;;;8.20;;
50064;SDS011;64524;47.848;-122.338;2022-12-18T06:06:27;16.50;;;8.40;;
50064;SDS011;64524;47.848;-122.338;2022-12-18T06:08:56;18.80;;;9.60;;
50064;SDS011;64524;47.848;-122.338;2022-12-18T06:11:25;13.20;;;7.90;;
50064;SDS011;64524;47.848;-122.338;2022-12-18T06:13:55;13.80;;;8.70;;
50064;SDS011;64524;47.848;-122.338;2022-12-18T06:16:26;16.60;;;8.30;;
50064;SDS011;64524;47.848;-122.338;2022-12-18T06:18:59;14.30;;;7.40;;
50064;SDS011;64524;47.848;-122.338;2022-12-18T06:21:33;12.70;;;6.90;;
50064;SDS011;64524;47.848;-122.338;2022-12-18T06:24:02;14.00;;;6.30;;
50064;SDS011;64524;47.848;-122.338;2022-12-18T06:26:39;15.20;;;6.60;;
50064;SDS011;64524;47.848;-122.338;2022-12-18T06:29:10;10.60;;;5.10;;
50064;SDS011;64524;47.848;-122.338;2022-12-18T06:31:39;11.40;;;5.90;;
50064;SDS011;64524;47.848;-122.338;2022-12-18T06:34:11;9.50;;;5.00;;
50064;SDS011;64524;47.848;-122.338;2022-12-18T06:36:40;12.30;;;4.70;;
50064;SDS011;64524;47.848;-122.338;2022-12-18T06:39:08;10.50;;;5.50;;
50064;SDS011;64524;47.848;-122.338;2022-12-18T06:41:37;12.20;;;4.60;;
50064;SDS011;64524;47.848;-122.338;2022-12-18T06:44:09;7.40;;;4.30;;
50064;SDS011;64524;47.848;-122.338;2022-12-18T06:46:38;7.70;;;4.40;;
50064;SDS011;64524;47.848;-122.338;2022-12-18T06:49:07;10.80;;;4.30;;
50064;SDS011;64524;47.848;-122.338;2022-12-18T06:51:41;8.40;;;4.00;;
50064;SDS011;64524;47.848;-122.338;2022-12-18T06:54:09;10.20;;;4.00;;
50064;SDS011;64524;47.848;-122.338;2022-12-18T06:56:38;10.10;;;5.10;;
50064;SDS011;64524;47.848;-122.338;2022-12-18T06:59:09;8.40;;;4.60;;
50064;SDS011;64524;47.848;-122.338;2022-12-18T07:01:38;9.90;;;4.70;;
50064;SDS011;64524;47.848;-122.338;2022-12-18T07:04:07;9.50;;;4.10;;
50064;SDS011;64524;47.848;-122.338;2022-12-18T07:06:36;7.60;;;4.30;;
50064;SDS011;64524;47.848;-122.338;2022-12-18T07:09:05;9.50;;;4.90;;
50064;SDS011;64524;47.848;-122.338;2022-12-18T07:11:33;13.80;;;5.90;;
50064;SDS011;64524;47.848;-122.338;2022-12-18T07:14:07;9.00;;;5.60;;
50064;SDS011;64524;47.848;-122.338;2022-12-18T07:16:35;11.80;;;4.90;;
50064;SDS011;64524;47.848;-122.338;2022-12-18T07:19:10;7.80;;;4.20;;
50064;SDS011;64524;47.848;-122.338;2022-12-18T07:21:38;10.80;;;4.40;;
50064;SDS011;64524;47.848;-122.338;2022-12-18T07:24:10;8.60;;;4.90;;
50064;SDS011;64524;47.848;-122.338;2022-12-18T07:26:39;10.00;;;4.00;;
50064;SDS011;64524;47.848;-122.338;2022-12-18T07:29:07;10.30;;;3.90;;
50064;SDS011;64524;47.848;-122.338;2022-12-18T07:31:39;6.50;;;3.00;;
50064;SDS011;64524;47.848;-122.338;2022-12-18T07:34:14;5.20;;;3.90;;
50064;SDS011;64524;47.848;-122.338;2022-12-18T07:36:45;6.40;;;3.50;;
50064;SDS011;64524;47.848;-122.338;2022-12-18T07:39:14;7.80;;;3.70;;
50064;SDS011;64524;47.848;-122.338;2022-12-18T07:41:45;4.30;;;2.80;;
50064;SDS011;64524;47.848;-122.338;2022-12-18T07:44:34;5.90;;;3.10;;
50064;SDS011;64524;47.848;-122.338;2022-12-18T07:47:05;10.60;;;2.80;;
50064;SDS011;64524;47.848;-122.338;2022-12-18T07:49:37;5.90;;;2.70;;
50064;SDS011;64524;47.848;-122.338;2022-12-18T07:52:06;6.70;;;3.30;;
50064;SDS011;64524;47.848;-122.338;2022-12-18T07:54:39;4.90;;;3.10;;
50064;SDS011;64524;47.848;-122.338;2022-12-18T07:57:08;4.70;;;1.20;;
50064;SDS011;64524;47.848;-122.338;2022-12-18T07:59:56;5.50;;;2.40;;
50064;SDS011;64524;47.848;-122.338;2022-12-18T08:02:25;5.80;;;1.70;;
50064;SDS011;64524;47.848;-122.338;2022-12-18T08:04:54;3.20;;;1.10;;
50064;SDS011;64524;47.848;-122.338;2022-12-18T08:07:23;1.80;;;1.00;;
50064;SDS011;64524;47.848;-122.338;2022-12-18T08:09:52;2.60;;;0.80;;
50064;SDS011;64524;47.848;-122.338;2022-12-18T08:12:21;2.90;;;0.60;;
50064;SDS011;64524;47.848;-122.338;2022-12-18T08:14:49;1.30;;;0.60;;
50064;SDS011;64524;47.848;-122.338;2022-12-18T08:17:19;2.10;;;0.50;;
50064;SDS011;64524;47.848;-122.338;2022-12-18T08:19:47;2.30;;;0.60;;
50064;SDS011;64524;47.848;-122.338;2022-12-18T08:22:19;1.20;;;0.50;;
50064;SDS011;64524;47.848;-122.338;2022-12-18T08:24:47;1.90;;;0.50;;
50064;SDS011;64524;47.848;-122.338;2022-12-18T08:27:16;1.60;;;0.60;;
50064;SDS011;64524;47.848;-122.338;2022-12-18T08:30:00;1.50;;;0.20;;
50064;SDS011;64524;47.848;-122.338;2022-12-18T08:32:31;1.00;;;0.30;;
50064;SDS011;64524;47.848;-122.338;2022-12-18T08:35:00;0.60;;;0.20;;
50064;SDS011;64524;47.848;-122.338;2022-12-18T08:37:28;0.60;;;0.30;;
50064;SDS011;64524;47.848;-122.338;2022-12-18T08:39:57;0.50;;;0.30;;
50064;SDS011;64524;47.848;-122.338;2022-12-18T08:42:25;2.50;;;0.40;;
50064;SDS011;64524;47.848;-122.338;2022-12-18T08:45:14;0.70;;;0.30;;
50064;SDS011;64524;47.848;-122.338;2022-12-18T08:47:49;0.80;;;0.40;;
50064;SDS011;64524;47.848;-122.338;2022-12-18T08:50:17;0.80;;;0.40;;
50064;SDS011;64524;47.848;-122.338;2022-12-18T08:53:12;1.00;;;0.30;;
50064;SDS011;64524;47.848;-122.338;2022-12-18T08:55:49;0.80;;;0.30;;
50064;SDS011;64524;47.848;-122.338;2022-12-18T08:58:41;6.50;;;0.30;;
50064;SDS011;64524;47.848;-122.338;2022-12-18T09:01:20;0.90;;;0.30;;
50064;SDS011;64524;47.848;-122.338;2022-12-18T09:03:49;0.40;;;0.20;;
50064;SDS011;64524;47.848;-122.338;2022-12-18T09:06:19;0.70;;;0.20;;
50064;SDS011;64524;47.848;-122.338;2022-12-18T09:08:48;0.50;;;0.20;;
50064;SDS011;64524;47.848;-122.338;2022-12-18T09:11:21;0.80;;;0.30;;
50064;SDS011;64524;47.848;-122.338;2022-12-18T09:13:54;0.60;;;0.30;;
50064;SDS011;64524;47.848;-122.338;2022-12-18T09:16:24;0.60;;;0.20;;
50064;SDS011;64524;47.848;-122.338;2022-12-18T09:18:58;0.60;;;0.30;;
50064;SDS011;64524;47.848;-122.338;2022-12-18T09:21:29;0.70;;;0.30;;
50064;SDS011;64524;47.848;-122.338;2022-12-18T09:24:03;0.70;;;0.30;;
50064;SDS011;64524;47.848;-122.338;2022-12-18T09:26:41;0.60;;;0.20;;
50064;SDS011;64524;47.848;-122.338;2022-12-18T09:29:13;2.30;;;0.30;;
50064;SDS011;64524;47.848;-122.338;2022-12-18T09:31:47;0.60;;;0.30;;
50064;SDS011;64524;47.848;-122.338;2022-12-18T09:34:16;0.50;;;0.20;;
50064;SDS011;64524;47.848;-122.338;2022-12-18T09:37:11;0.30;;;0.20;;
50064;SDS011;64524;47.848;-122.338;2022-12-18T09:39:39;1.20;;;0.30;;
50064;SDS011;64524;47.848;-122.338;2022-12-18T09:42:42;0.90;;;0.20;;
50064;SDS011;64524;47.848;-122.338;2022-12-18T09:45:26;0.50;;;0.20;;
50064;SDS011;64524;47.848;-122.338;2022-12-18T09:47:57;0.80;;;0.30;;
50064;SDS011;64524;47.848;-122.338;2022-12-18T09:50:35;1.20;;;0.20;;
50064;SDS011;64524;47.848;-122.338;2022-12-18T09:53:10;0.60;;;0.20;;
50064;SDS011;64524;47.848;-122.338;2022-12-18T09:55:45;0.50;;;0.20;;
50064;SDS011;64524;47.848;-122.338;2022-12-18T09:58:31;1.00;;;0.30;;
50064;SDS011;64524;47.848;-122.338;2022-12-18T10:01:00;1.60;;;0.20;;
50064;SDS011;64524;47.848;-122.338;2022-12-18T10:03:29;2.00;;;0.30;;
50064;SDS011;64524;47.848;-122.338;2022-12-18T10:06:10;0.60;;;0.20;;
50064;SDS011;64524;47.848;-122.338;2022-12-18T10:09:00;0.90;;;0.30;;
50064;SDS011;64524;47.848;-122.338;2022-12-18T10:11:40;0.80;;;0.30;;
50064;SDS011;64524;47.848;-122.338;2022-12-18T10:17:26;0.80;;;0.30;;
50064;SDS011;64524;47.848;-122.338;2022-12-18T10:26:13;0.60;;;0.20;;
50064;SDS011;64524;47.848;-122.338;2022-12-18T10:28:43;0.70;;;0.30;;
50064;SDS011;64524;47.848;-122.338;2022-12-18T10:31:21;0.60;;;0.30;;
50064;SDS011;64524;47.848;-122.338;2022-12-18T10:33:53;0.90;;;0.30;;
50064;SDS011;64524;47.848;-122.338;2022-12-18T10:36:23;0.80;;;0.30;;
50064;SDS011;64524;47.848;-122.338;2022-12-18T10:41:50;3.00;;;0.30;;
50064;SDS011;64524;47.848;-122.338;2022-12-18T10:44:20;7.40;;;0.20;;
50064;SDS011;64524;47.848;-122.338;2022-12-18T10:46:52;0.40;;;0.20;;
50064;SDS011;64524;47.848;-122.338;2022-12-18T10:49:27;0.80;;;0.20;;
50064;SDS011;64524;47.848;-122.338;2022-12-18T10:57:29;0.50;;;0.20;;
50064;SDS011;64524;47.848;-122.338;2022-12-18T11:02:50;0.60;;;0.20;;
50064;SDS011;64524;47.848;-122.338;2022-12-18T11:05:32;1.80;;;0.20;;
50064;SDS011;64524;47.848;-122.338;2022-12-18T11:08:01;1.40;;;0.20;;
50064;SDS011;64524;47.848;-122.338;2022-12-18T11:10:37;1.80;;;0.30;;
50064;SDS011;64524;47.848;-122.338;2022-12-18T11:13:29;0.30;;;0.10;;
50064;SDS011;64524;47.848;-122.338;2022-12-18T11:15:58;0.40;;;0.20;;
50064;SDS011;64524;47.848;-122.338;2022-12-18T11:23:37;1.10;;;0.20;;
50064;SDS011;64524;47.848;-122.338;2022-12-18T11:26:33;0.40;;;0.10;;
50064;SDS011;64524;47.848;-122.338;2022-12-18T11:29:10;4.60;;;0.10;;
50064;SDS011;64524;47.848;-122.338;2022-12-18T11:31:45;0.40;;;0.10;;
50064;SDS011;64524;47.848;-122.338;2022-12-18T11:36:58;0.60;;;0.20;;
50064;SDS011;64524;47.848;-122.338;2022-12-18T11:39:34;0.40;;;0.10;;
50064;SDS011;64524;47.848;-122.338;2022-12-18T11:45:02;1.80;;;0.20;;
50064;SDS011;64524;47.848;-122.338;2022-12-18T11:50:33;0.20;;;0.10;;
50064;SDS011;64524;47.848;-122.338;2022-12-18T11:53:10;0.20;;;0.10;;
50064;SDS011;64524;47.848;-122.338;2022-12-18T11:58:51;1.10;;;0.00;;
50064;SDS011;64524;47.848;-122.338;2022-12-18T12:01:52;3.30;;;0.20;;
50064;SDS011;64524;47.848;-122.338;2022-12-18T12:04:33;0.30;;;0.10;;
50064;SDS011;64524;47.848;-122.338;2022-12-18T12:21:34;0.50;;;0.10;;
50064;SDS011;64524;47.848;-122.338;2022-12-18T12:24:29;0.40;;;0.10;;
50064;SDS011;64524;47.848;-122.338;2022-12-18T12:30:24;2.80;;;0.10;;
50064;SDS011;64524;47.848;-122.338;2022-12-18T12:35:28;0.20;;;0.10;;
50064;SDS011;64524;47.848;-122.338;2022-12-18T12:43:58;0.10;;;0.10;;
50064;SDS011;64524;47.848;-122.338;2022-12-18T12:46:34;0.70;;;0.10;;
50064;SDS011;64524;47.848;-122.338;2022-12-18T12:49:13;0.30;;;0.10;;
50064;SDS011;64524;47.848;-122.338;2022-12-18T12:52:28;0.20;;;0.10;;
50064;SDS011;64524;47.848;-122.338;2022-12-18T12:57:40;0.40;;;0.10;;
50064;SDS011;64524;47.848;-122.338;2022-12-18T13:00:18;0.40;;;0.10;;
50064;SDS011;64524;47.848;-122.338;2022-12-18T13:05:38;0.30;;;0.10;;
50064;SDS011;64524;47.848;-122.338;2022-12-18T13:08:25;0.10;;;0.00;;
50064;SDS011;64524;47.848;-122.338;2022-12-18T13:11:01;0.30;;;0.10;;
50064;SDS011;64524;47.848;-122.338;2022-12-18T13:13:53;0.20;;;0.10;;
50064;SDS011;64524;47.848;-122.338;2022-12-18T13:16:24;2.30;;;0.20;;
50064;SDS011;64524;47.848;-122.338;2022-12-18T13:18:57;0.20;;;0.10;;
50064;SDS011;64524;47.848;-122.338;2022-12-18T13:21:30;0.30;;;0.10;;
50064;SDS011;64524;47.848;-122.338;2022-12-18T13:26:52;3.10;;;0.10;;
50064;SDS011;64524;47.848;-122.338;2022-12-18T13:32:21;1.40;;;0.10;;
50064;SDS011;64524;47.848;-122.338;2022-12-18T13:37:53;1.20;;;0.10;;
50064;SDS011;64524;47.848;-122.338;2022-12-18T13:48:36;0.40;;;0.10;;
50064;SDS011;64524;47.848;-122.338;2022-12-18T13:51:16;0.40;;;0.10;;
50064;SDS011;64524;47.848;-122.338;2022-12-18T13:53:51;0.20;;;0.10;;
50064;SDS011;64524;47.848;-122.338;2022-12-18T13:56:27;0.30;;;0.10;;
50064;SDS011;64524;47.848;-122.338;2022-12-18T14:01:41;0.60;;;0.10;;
50064;SDS011;64524;47.848;-122.338;2022-12-18T14:04:22;0.20;;;0.00;;
50064;SDS011;64524;47.848;-122.338;2022-12-18T14:09:29;1.40;;;0.10;;
50064;SDS011;64524;47.848;-122.338;2022-12-18T14:12:04;2.20;;;0.10;;
50064;SDS011;64524;47.848;-122.338;2022-12-18T14:14:54;0.20;;;0.10;;
50064;SDS011;64524;47.848;-122.338;2022-12-18T14:17:34;1.50;;;0.10;;
50064;SDS011;64524;47.848;-122.338;2022-12-18T14:20:14;0.30;;;0.00;;
50064;SDS011;64524;47.848;-122.338;2022-12-18T14:22:45;0.40;;;0.10;;
50064;SDS011;64524;47.848;-122.338;2022-12-18T14:25:19;0.30;;;0.10;;
50064;SDS011;64524;47.848;-122.338;2022-12-18T14:30:40;2.80;;;0.10;;
50064;SDS011;64524;47.848;-122.338;2022-12-18T14:33:14;0.40;;;0.10;;
50064;SDS011;64524;47.848;-122.338;2022-12-18T14:38:32;0.40;;;0.10;;
50064;SDS011;64524;47.848;-122.338;2022-12-18T14:41:11;0.40;;;0.10;;
50064;SDS011;64524;47.848;-122.338;2022-12-18T14:43:42;0.40;;;0.10;;
50064;SDS011;64524;47.848;-122.338;2022-12-18T14:46:29;0.20;;;0.00;;
50064;SDS011;64524;47.848;-122.338;2022-12-18T14:49:30;0.20;;;0.00;;
50064;SDS011;64524;47.848;-122.338;2022-12-18T14:52:06;0.10;;;0.00;;
50064;SDS011;64524;47.848;-122.338;2022-12-18T14:54:56;0.30;;;0.20;;
50064;SDS011;64524;47.848;-122.338;2022-12-18T14:57:25;0.20;;;0.00;;
50064;SDS011;64524;47.848;-122.338;2022-12-18T15:00:06;0.20;;;0.10;;
50064;SDS011;64524;47.848;-122.338;2022-12-18T15:02:43;0.60;;;0.10;;
50064;SDS011;64524;47.848;-122.338;2022-12-18T15:07:49;0.30;;;0.10;;
50064;SDS011;64524;47.848;-122.338;2022-12-18T15:10:23;0.60;;;0.10;;
50064;SDS011;64524;47.848;-122.338;2022-12-18T15:20:52;0.10;;;0.00;;
50064;SDS011;64524;47.848;-122.338;2022-12-18T15:23:56;0.10;;;0.00;;
50064;SDS011;64524;47.848;-122.338;2022-12-18T15:26:21;0.10;;;0.00;;
50064;SDS011;64524;47.848;-122.338;2022-12-18T15:28:50;0.10;;;0.00;;
50064;SDS011;64524;47.848;-122.338;2022-12-18T15:31:24;0.20;;;0.00;;
50064;SDS011;64524;47.848;-122.338;2022-12-18T15:36:36;0.20;;;0.00;;
50064;SDS011;64524;47.848;-122.338;2022-12-18T15:39:05;2.00;;;0.00;;
50064;SDS011;64524;47.848;-122.338;2022-12-18T15:41:34;0.20;;;0.00;;
50064;SDS011;64524;47.848;-122.338;2022-12-18T15:44:27;2.70;;;0.00;;
50064;SDS011;64524;47.848;-122.338;2022-12-18T15:46:55;0.20;;;0.00;;
50064;SDS011;64524;47.848;-122.338;2022-12-18T15:49:25;0.10;;;0.00;;
50064;SDS011;64524;47.848;-122.338;2022-12-18T15:52:01;0.20;;;0.00;;
50064;SDS011;64524;47.848;-122.338;2022-12-18T15:54:30;0.00;;;0.00;;
50064;SDS011;64524;47.848;-122.338;2022-12-18T15:57:17;0.30;;;0.00;;
50064;SDS011;64524;47.848;-122.338;2022-12-18T15:59:52;0.00;;;0.00;;
50064;SDS011;64524;47.848;-122.338;2022-12-18T16:02:25;0.10;;;0.00;;
50064;SDS011;64524;47.848;-122.338;2022-12-18T16:04:58;1.10;;;0.10;;
50064;SDS011;64524;47.848;-122.338;2022-12-18T16:07:29;1.60;;;0.10;;
50064;SDS011;64524;47.848;-122.338;2022-12-18T16:09:59;0.10;;;0.00;;
50064;SDS011;64524;47.848;-122.338;2022-12-18T16:12:31;0.00;;;0.00;;
50064;SDS011;64524;47.848;-122.338;2022-12-18T16:15:01;0.00;;;0.00;;
50064;SDS011;64524;47.848;-122.338;2022-12-18T16:17:32;0.20;;;0.00;;
50064;SDS011;64524;47.848;-122.338;2022-12-18T16:20:03;0.00;;;0.00;;
50064;SDS011;64524;47.848;-122.338;2022-12-18T16:22:35;0.30;;;0.00;;
50064;SDS011;64524;47.848;-122.338;2022-12-18T16:25:05;0.10;;;0.00;;
50064;SDS011;64524;47.848;-122.338;2022-12-18T16:27:41;0.50;;;0.00;;
50064;SDS011;64524;47.848;-122.338;2022-12-18T16:30:14;0.30;;;0.00;;
50064;SDS011;64524;47.848;-122.338;2022-12-18T16:32:44;0.00;;;0.00;;
50064;SDS011;64524;47.848;-122.338;2022-12-18T16:35:14;0.60;;;0.00;;
50064;SDS011;64524;47.848;-122.338;2022-12-18T16:37:48;2.60;;;0.00;;
50064;SDS011;64524;47.848;-122.338;2022-12-18T16:40:18;0.00;;;0.00;;
50064;SDS011;64524;47.848;-122.338;2022-12-18T16:42:47;0.80;;;0.00;;
50064;SDS011;64524;47.848;-122.338;2022-12-18T16:45:16;0.10;;;0.00;;
50064;SDS011;64524;47.848;-122.338;2022-12-18T16:47:45;0.10;;;0.00;;
50064;SDS011;64524;47.848;-122.338;2022-12-18T16:50:16;0.60;;;0.00;;
50064;SDS011;64524;47.848;-122.338;2022-12-18T16:52:49;0.00;;;0.00;;
50064;SDS011;64524;47.848;-122.338;2022-12-18T16:55:21;0.70;;;0.00;;
50064;SDS011;64524;47.848;-122.338;2022-12-18T16:57:50;0.20;;;0.00;;